Time;durP1;ratioP1;P1;durP2;ratioP2;P2;SDS_P1;SDS_P2;PMS_P1;PMS_P2;Temp;Humidity;BMP_temperature;BMP_pressure;BME280_temperature;BME280_humidity;BME280_pressure;Samples;Min_cycle;Max_cycle;Signal;HPM_P1;HPM_P2
2022/09/01 15:33:58;;;;;;;6.23;2.50;;;;;;;23.06;100.00;94328.06;5060999;27;1521690;-88
2022/09/01 15:36:27;;;;;;;5.13;2.63;;;;;;;22.92;100.00;94323.19;5076242;28;20032;-91
2022/09/01 15:38:53;;;;;;;6.60;2.72;;;;;;;22.22;100.00;94335.22;5059981;28;20035;-88
2022/09/01 15:41:24;;;;;;;8.38;2.88;;;;;;;22.99;100.00;94331.38;5075930;28;20459;-89
2022/09/01 15:43:50;;;;;;;10.70;3.13;;;;;;;21.92;100.00;94330.25;5094435;28;20421;-90
2022/09/01 15:46:16;;;;;;;7.28;3.35;;;;;;;22.26;100.00;94333.44;5058896;28;20039;-90
2022/09/01 15:48:45;;;;;;;7.05;3.17;;;;;;;22.34;100.00;94334.38;5075628;28;20034;-89
2022/09/01 15:51:22;;;;;;;7.10;3.28;;;;;;;22.35;100.00;94331.34;5076358;28;20036;-88
2022/09/01 15:53:58;;;;;;;7.60;2.80;;;;;;;23.22;100.00;94338.72;5075643;28;20372;-89
2022/09/01 15:56:24;;;;;;;10.02;3.40;;;;;;;22.45;100.00;94330.06;5038244;28;20032;-89
2022/09/01 15:58:50;;;;;;;6.82;3.38;;;;;;;21.84;100.00;94324.75;5039161;28;20050;-88
2022/09/01 16:01:17;;;;;;;6.35;3.00;;;;;;;22.07;100.00;94324.19;5038707;28;20346;-88
2022/09/01 16:03:42;;;;;;;10.35;3.42;;;;;;;22.82;100.00;94329.84;5055475;28;20375;-89
2022/09/01 16:06:08;;;;;;;4.75;3.20;;;;;;;24.95;100.00;94337.69;5039386;28;20123;-90
2022/09/01 16:08:34;;;;;;;3.58;2.40;;;;;;;25.21;100.00;94336.16;5055380;28;20152;-88
2022/09/01 16:11:01;;;;;;;4.05;2.70;;;;;;;24.82;100.00;94345.16;5039103;28;20040;-89
2022/09/01 16:13:27;;;;;;;8.20;3.00;;;;;;;24.05;100.00;94347.66;5055687;28;20031;-89
2022/09/01 16:16:18;;;;;;;4.65;2.70;;;;;;;25.70;100.00;94349.84;5039335;28;20060;-89
2022/09/01 16:19:14;;;;;;;3.78;2.20;;;;;;;25.40;100.00;94348.66;5038706;28;20028;-90
2022/09/01 16:22:17;;;;;;;4.05;2.35;;;;;;;27.99;95.64;94346.22;5037975;28;20076;-90
2022/09/01 16:24:46;;;;;;;5.65;2.25;;;;;;;28.41;91.33;94352.13;5055460;28;20067;-90
2022/09/01 16:27:17;;;;;;;4.00;2.03;;;;;;;28.42;93.57;94350.97;5038619;28;20050;-90
2022/09/01 16:29:46;;;;;;;3.42;1.95;;;;;;;28.04;86.88;94356.63;5038541;28;20082;-89
2022/09/01 16:32:12;;;;;;;5.38;2.92;;;;;;;25.62;100.00;94348.19;5054891;28;20032;-91
2022/09/01 16:34:45;;;;;;;5.13;2.30;;;;;;;27.10;100.00;94352.31;5054889;28;20498;-91
2022/09/01 16:37:39;;;;;;;4.82;2.42;;;;;;;26.70;100.00;94340.47;5045275;28;20401;-93
2022/09/01 16:40:07;;;;;;;9.48;2.22;;;;;;;27.52;100.00;94344.88;5079590;28;20044;-92
2022/09/01 16:42:45;;;;;;;2.50;1.80;;;;;;;27.50;100.00;94347.16;5061426;28;20063;-93
2022/09/01 16:45:37;;;;;;;3.50;2.22;;;;;;;26.64;100.00;94352.72;5058969;28;20044;-91
2022/09/01 16:48:21;;;;;;;4.43;2.70;;;;;;;25.15;100.00;94348.31;5038050;28;20037;-90
2022/09/01 16:50:52;;;;;;;4.78;2.67;;;;;;;24.37;100.00;94344.78;5041666;28;20029;-91
2022/09/01 16:53:38;;;;;;;5.57;3.00;;;;;;;22.77;100.00;94348.00;5027433;28;20352;-91
2022/09/01 16:56:20;;;;;;;5.43;2.58;;;;;;;22.76;100.00;94346.47;5030094;28;20430;-92
2022/09/01 16:59:11;;;;;;;4.45;2.65;;;;;;;21.81;100.00;94341.44;5067487;28;20067;-93
2022/09/01 17:02:16;;;;;;;5.65;3.53;;;;;;;21.95;100.00;94350.91;5006155;28;20359;-92
2022/09/01 17:04:51;;;;;;;5.10;3.08;;;;;;;22.10;100.00;94350.19;5041527;28;20028;-92
2022/09/01 17:07:28;;;;;;;6.03;2.50;;;;;;;22.11;100.00;94354.41;5024801;28;20037;-91
2022/09/01 17:10:19;;;;;;;15.75;3.08;;;;;;;21.89;100.00;94356.50;5041006;28;20166;-92
2022/09/01 17:12:49;;;;;;;5.57;2.67;;;;;;;21.90;100.00;94351.94;5040980;28;20025;-92
2022/09/01 17:15:39;;;;;;;4.38;2.58;;;;;;;21.94;100.00;94349.34;5024756;28;20025;-91
2022/09/01 17:18:19;;;;;;;5.65;2.90;;;;;;;21.89;100.00;94353.81;5025365;28;20029;-92
2022/09/01 17:20:54;;;;;;;6.38;3.58;;;;;;;21.85;100.00;94358.28;5041064;28;20353;-92
2022/09/01 17:23:26;;;;;;;5.18;3.08;;;;;;;21.51;100.00;94357.69;5024377;28;20059;-93
2022/09/01 17:26:00;;;;;;;4.53;3.10;;;;;;;21.29;100.00;94365.06;5041069;28;20108;-92
2022/09/01 17:28:32;;;;;;;9.05;3.60;;;;;;;21.53;100.00;94370.69;5040919;28;20040;-92
2022/09/01 17:31:26;;;;;;;7.53;3.28;;;;;;;21.59;100.00;94370.13;5024514;28;20025;-91
2022/09/01 17:33:57;;;;;;;6.43;2.78;;;;;;;21.35;100.00;94370.97;5058142;28;20036;-92
2022/09/01 17:37:14;;;;;;;6.80;3.03;;;;;;;20.32;100.00;94371.56;5040449;28;20033;-91
2022/09/01 17:39:49;;;;;;;6.10;2.83;;;;;;;20.61;100.00;94382.34;4977529;28;20043;-92
2022/09/01 17:42:26;;;;;;;7.07;2.63;;;;;;;20.73;100.00;94379.72;4977423;28;20039;-92
2022/09/01 17:45:04;;;;;;;2.53;2.30;;;;;;;20.70;100.00;94374.28;5008740;28;20505;-93
2022/09/01 17:47:56;;;;;;;6.55;2.53;;;;;;;20.69;100.00;94384.16;5058068;28;20029;-92
2022/09/01 17:50:37;;;;;;;4.82;2.40;;;;;;;20.59;100.00;94382.72;5058091;28;20040;-92
2022/09/01 17:53:20;;;;;;;5.00;2.35;;;;;;;20.55;100.00;94386.34;5075267;28;20452;-92
2022/09/01 17:56:04;;;;;;;;;;;;;;;20.02;100.00;94389.53;5078240;28;20111;-91
2022/09/01 17:58:54;;;;;;;6.20;2.33;;;;;;;19.99;100.00;94387.53;5077829;28;20245;-92
2022/09/01 18:01:49;;;;;;;4.47;2.80;;;;;;;19.45;100.00;94394.31;5077726;28;20082;-93
2022/09/01 18:04:20;;;;;;;5.88;3.08;;;;;;;19.57;100.00;94399.69;5077817;28;20024;-92
2022/09/01 18:07:15;;;;;;;8.68;3.15;;;;;;;19.34;100.00;94399.22;5077616;28;20031;-91
2022/09/01 18:09:44;;;;;;;8.60;3.28;;;;;;;19.26;100.00;94398.19;5066675;28;20040;-93
2022/09/01 18:12:13;;;;;;;10.18;3.80;;;;;;;19.07;100.00;94402.00;5077514;28;20032;-92
2022/09/01 18:15:07;;;;;;;6.32;3.22;;;;;;;19.41;100.00;94415.44;5059698;28;20028;-92
2022/09/01 18:17:40;;;;;;;6.75;3.50;;;;;;;19.13;100.00;94415.13;5077468;28;20025;-92
2022/09/01 18:20:10;;;;;;;10.20;3.47;;;;;;;19.05;100.00;94422.03;5077507;28;20082;-92
2022/09/01 18:22:41;;;;;;;12.23;4.30;;;;;;;19.25;100.00;94420.53;5077313;28;20033;-92
2022/09/01 18:25:13;;;;;;;7.72;4.50;;;;;;;19.07;100.00;94422.50;5059606;28;20028;-93
2022/09/01 18:27:42;;;;;;;12.07;5.03;;;;;;;19.01;100.00;94429.84;5059447;28;20085;-92
2022/09/01 18:30:08;;;;;;;10.43;4.15;;;;;;;19.32;100.00;94434.06;5059711;28;20028;-91
2022/09/01 18:32:58;;;;;;;6.30;4.10;;;;;;;19.19;100.00;94445.69;5076986;28;20035;-91
2022/09/01 18:35:35;;;;;;;12.10;4.82;;;;;;;19.27;100.00;94444.91;5059600;28;20029;-92
2022/09/01 18:38:37;;;;;;;7.63;5.28;;;;;;;19.34;100.00;94441.72;5059585;28;20401;-92
2022/09/01 18:41:43;;;;;;;12.88;4.50;;;;;;;19.60;100.00;94448.78;5059208;28;20027;-92
2022/09/01 18:44:20;;;;;;;9.18;4.10;;;;;;;19.55;100.00;94449.75;5076994;28;20032;-92
2022/09/01 18:47:08;;;;;;;8.70;3.83;;;;;;;19.57;100.00;94449.41;5076898;28;20399;-91
2022/09/01 18:49:48;;;;;;;7.38;4.57;;;;;;;19.63;100.00;94450.78;5059018;28;20020;-91
2022/09/01 18:52:49;;;;;;;11.68;4.47;;;;;;;19.38;100.00;94453.25;5076897;28;20025;-91
2022/09/01 18:55:33;;;;;;;7.70;4.18;;;;;;;19.47;100.00;94455.88;5076848;28;20021;-91
2022/09/01 18:58:05;;;;;;;5.57;4.15;;;;;;;19.50;100.00;94463.97;5076542;28;20029;-91
2022/09/01 19:00:56;;;;;;;6.40;3.65;;;;;;;19.46;100.00;94465.75;5058951;28;20051;-91
2022/09/01 19:03:31;;;;;;;6.70;3.67;;;;;;;19.42;100.00;94464.81;5076698;28;20457;-92
2022/09/01 19:06:15;;;;;;;6.20;3.65;;;;;;;19.35;100.00;94470.63;5058896;28;20071;-92
2022/09/01 19:08:49;;;;;;;4.75;3.80;;;;;;;19.31;100.00;94469.72;5076713;28;20031;-87
2022/09/01 19:11:23;;;;;;;;;;;;;;;19.25;100.00;94472.84;5059557;28;20051;-92
2022/09/01 19:13:48;;;;;;;7.20;3.25;;;;;;;18.90;100.00;94471.09;5059022;28;20366;-92
2022/09/01 19:16:42;;;;;;;7.22;3.63;;;;;;;19.03;100.00;94474.69;5074945;28;20020;-92
2022/09/01 19:19:15;;;;;;;5.35;3.42;;;;;;;19.06;100.00;94474.03;5059205;28;20024;-91
2022/09/01 19:21:42;;;;;;;8.55;3.63;;;;;;;18.29;100.00;94478.09;5058707;28;20024;-92
2022/09/01 19:24:16;;;;;;;7.75;4.63;;;;;;;18.38;100.00;94472.78;5042852;28;20020;-92
2022/09/01 19:26:50;;;;;;;5.22;3.97;;;;;;;18.03;100.00;94467.47;5042417;28;20036;-91
2022/09/01 19:29:19;;;;;;;6.45;3.58;;;;;;;17.83;100.00;94474.94;5045883;28;20062;-91
2022/09/01 19:31:50;;;;;;;8.00;3.60;;;;;;;18.26;100.00;94465.44;5038655;28;20025;-92
2022/09/01 19:34:17;;;;;;;5.55;3.17;;;;;;;18.49;100.00;94467.91;5038678;28;20025;-92
2022/09/01 19:36:54;;;;;;;6.00;3.45;;;;;;;18.29;100.00;94472.00;5038639;28;20441;-91
2022/09/01 19:39:28;;;;;;;6.32;3.28;;;;;;;18.25;100.00;94471.06;5056689;28;20341;-91
2022/09/01 19:42:01;;;;;;;9.25;2.80;;;;;;;18.28;100.00;94467.78;5038551;28;20083;-91
2022/09/01 19:48:06;;;;;;;3.08;2.05;;;;;;;18.42;100.00;94476.34;5056286;28;20408;-92
2022/09/01 19:50:46;;;;;;;4.93;2.17;;;;;;;18.47;100.00;94488.69;5038528;28;20033;-91
2022/09/01 19:53:35;;;;;;;3.92;2.08;;;;;;;18.46;100.00;94481.81;5056147;28;20513;-92
2022/09/01 19:56:28;;;;;;;2.28;2.00;;;;;;;18.48;100.00;94488.34;5056482;28;20710;-92
2022/09/01 19:59:07;;;;;;;7.90;2.27;;;;;;;18.57;100.00;94487.56;5038584;28;20025;-91
2022/09/01 20:01:58;;;;;;;6.53;2.58;;;;;;;18.31;100.00;94483.06;5038547;28;20099;-91
2022/09/01 20:04:35;;;;;;;7.05;2.78;;;;;;;18.31;100.00;94483.88;5024673;28;20387;-91
2022/09/01 20:07:01;;;;;;;6.18;3.15;;;;;;;18.35;100.00;94487.44;5021823;28;20037;-92
2022/09/01 20:09:41;;;;;;;4.35;2.78;;;;;;;18.18;100.00;94485.56;5058235;28;20035;-92
2022/09/01 20:12:14;;;;;;;5.65;2.20;;;;;;;18.29;100.00;94486.06;5042579;28;20040;-91
2022/09/01 20:14:52;;;;;;;5.53;2.60;;;;;;;18.26;100.00;94496.50;5026042;28;20051;-91
2022/09/01 20:17:40;;;;;;;9.93;3.40;;;;;;;18.43;100.00;94501.00;5059765;28;20036;-91
2022/09/01 20:20:16;;;;;;;8.90;2.60;;;;;;;18.28;100.00;94497.72;5026273;28;20032;-91
2022/09/01 20:22:58;;;;;;;3.25;2.00;;;;;;;18.33;100.00;94502.09;5042169;28;20028;-92
2022/09/01 20:25:27;;;;;;;5.22;1.90;;;;;;;18.33;100.00;94496.78;5025710;28;20094;-92
2022/09/01 20:28:24;;;;;;;8.15;2.30;;;;;;;17.82;100.00;94502.53;5041930;28;20028;-91
2022/09/01 20:31:04;;;;;;;10.43;2.78;;;;;;;17.44;100.00;94506.50;5025705;28;20076;-91
2022/09/01 20:33:45;;;;;;;4.53;2.20;;;;;;;17.54;100.00;94500.13;5041459;28;20090;-92
2022/09/01 20:36:15;;;;;;;3.05;2.20;;;;;;;17.10;100.00;94503.41;5059402;28;20057;-92
2022/09/01 20:42:22;;;;;;;9.52;2.63;;;;;;;17.85;100.00;94496.59;5044135;28;20536;-92
2022/09/01 20:44:58;;;;;;;7.20;2.35;;;;;;;17.73;100.00;94501.72;4998295;28;20036;-92
2022/09/01 20:47:26;;;;;;;3.50;2.17;;;;;;;17.79;100.00;94505.81;5041570;28;20021;-92
2022/09/01 20:49:51;;;;;;;4.18;2.35;;;;;;;17.82;100.00;94513.13;5041612;28;20132;-92
2022/09/01 20:52:45;;;;;;;3.92;2.40;;;;;;;17.78;100.00;94512.97;5041304;28;20052;-91
2022/09/01 20:55:13;;;;;;;9.07;2.73;;;;;;;17.18;100.00;94514.34;5059385;28;20331;-93
2022/09/01 20:57:41;;;;;;;8.20;3.00;;;;;;;17.16;100.00;94527.09;5058996;28;20075;-91
2022/09/01 21:00:21;;;;;;;5.57;2.95;;;;;;;17.02;100.00;94521.91;5058881;28;20342;-91
2022/09/01 21:03:08;;;;;;;8.38;3.38;;;;;;;17.12;100.00;94520.88;5041417;28;20033;-91
2022/09/01 21:05:53;;;;;;;7.50;2.90;;;;;;;17.47;100.00;94527.06;5041431;28;20048;-91
2022/09/01 21:08:23;;;;;;;4.90;3.17;;;;;;;17.61;100.00;94521.66;5024476;28;20029;-91
2022/09/01 21:10:51;;;;;;;4.55;3.20;;;;;;;17.76;100.00;94519.66;5058806;28;20021;-92
2022/09/01 21:13:45;;;;;;;4.47;2.60;;;;;;;17.78;100.00;94520.13;5024547;28;20028;-91
2022/09/01 21:16:30;;;;;;;5.57;2.80;;;;;;;17.96;100.00;94523.59;5040845;28;20028;-91
2022/09/01 21:19:32;;;;;;;6.75;2.83;;;;;;;17.85;100.00;94520.47;5041343;28;20033;-91
2022/09/01 21:22:12;;;;;;;5.43;2.80;;;;;;;17.24;100.00;94527.13;5041336;28;20025;-91
2022/09/01 21:24:38;;;;;;;4.57;3.10;;;;;;;17.46;100.00;94524.72;5040792;28;20032;-91
2022/09/01 21:27:06;;;;;;;5.03;3.00;;;;;;;17.64;100.00;94530.84;5024257;28;20442;-91
2022/09/01 21:29:58;;;;;;;5.55;2.88;;;;;;;17.77;100.00;94524.66;5024355;28;20437;-91
2022/09/01 21:32:25;;;;;;;5.30;3.25;;;;;;;17.65;100.00;94527.91;5040607;28;20025;-91
2022/09/01 21:34:52;;;;;;;6.07;3.17;;;;;;;17.83;100.00;94532.44;5040678;28;20021;-91
2022/09/01 21:37:18;;;;;;;8.98;2.92;;;;;;;17.86;100.00;94537.13;5058194;28;20449;-91
2022/09/01 21:39:43;;;;;;;5.32;3.40;;;;;;;17.91;100.00;94529.81;5040466;28;20028;-91
2022/09/01 21:42:11;;;;;;;8.05;3.83;;;;;;;17.74;100.00;94529.78;5058041;28;20064;-92
2022/09/01 21:44:43;;;;;;;7.32;3.53;;;;;;;17.89;100.00;94534.66;5040477;28;20021;-91
2022/09/01 21:47:08;;;;;;;6.28;3.88;;;;;;;17.57;100.00;94538.47;5040546;28;20334;-91
2022/09/01 21:49:34;;;;;;;9.27;4.03;;;;;;;17.69;100.00;94541.31;5040561;28;20025;-91
2022/09/01 21:52:00;;;;;;;5.50;3.90;;;;;;;17.90;100.00;94541.50;5040351;28;20036;-92
2022/09/01 21:54:25;;;;;;;8.45;4.72;;;;;;;17.57;100.00;94535.81;5040097;28;20029;-92
2022/09/01 21:56:52;;;;;;;7.18;4.32;;;;;;;17.69;100.00;94532.59;5040045;28;20072;-90
2022/09/01 21:59:18;;;;;;;11.88;5.10;;;;;;;17.45;100.00;94534.56;5040525;28;20025;-91
2022/09/01 22:01:43;;;;;;;7.88;4.50;;;;;;;17.51;100.00;94538.59;5039910;28;20083;-91
2022/09/01 22:04:09;;;;;;;10.15;4.55;;;;;;;17.49;100.00;94535.50;5039934;28;20036;-90
2022/09/01 22:06:37;;;;;;;12.55;4.07;;;;;;;17.73;100.00;94529.03;5023719;28;20028;-91
2022/09/01 22:09:03;;;;;;;10.75;4.40;;;;;;;17.73;100.00;94536.97;5039882;28;20048;-91
2022/09/01 22:11:30;;;;;;;7.28;4.60;;;;;;;16.99;100.00;94539.16;5039995;28;20055;-91
2022/09/01 22:14:31;;;;;;;7.13;3.92;;;;;;;17.37;100.00;94537.94;5040500;28;20024;-91
2022/09/01 22:16:56;;;;;;;5.38;3.00;;;;;;;16.88;100.00;94543.13;5040069;28;20021;-92
2022/09/01 22:19:22;;;;;;;3.60;2.88;;;;;;;17.22;100.00;94537.25;5023678;28;20074;-91
2022/09/01 22:21:48;;;;;;;7.00;3.38;;;;;;;17.47;100.00;94548.25;5023336;28;20025;-91
2022/09/01 22:24:13;;;;;;;11.55;3.22;;;;;;;17.70;100.00;94548.16;5023706;28;20074;-91
2022/09/01 22:26:40;;;;;;;8.02;3.30;;;;;;;17.47;100.00;94555.41;5039487;28;20025;-91
2022/09/01 22:29:06;;;;;;;11.30;3.50;;;;;;;17.66;100.00;94560.47;5039573;28;20032;-90
2022/09/01 22:31:35;;;;;;;12.93;4.43;;;;;;;17.24;100.00;94566.09;5038961;28;20418;-92
2022/09/01 22:34:00;;;;;;;8.65;4.50;;;;;;;17.34;100.00;94559.75;5039417;28;20404;-91
2022/09/01 22:36:39;;;;;;;9.15;4.20;;;;;;;17.49;100.00;94553.22;5023069;28;20025;-90
2022/09/01 22:39:05;;;;;;;7.95;4.95;;;;;;;17.36;100.00;94557.56;5023433;28;20029;-92
2022/09/01 22:41:32;;;;;;;9.43;4.50;;;;;;;17.36;100.00;94547.75;5023210;28;20024;-91
2022/09/01 22:43:58;;;;;;;8.35;5.40;;;;;;;17.52;100.00;94552.66;5039251;28;20035;-91
2022/09/01 22:46:24;;;;;;;8.35;5.05;;;;;;;17.58;100.00;94554.06;5023047;28;20421;-92
2022/09/01 22:48:50;;;;;;;10.48;4.85;;;;;;;17.58;100.00;94548.00;5023054;28;20028;-91
2022/09/01 22:51:16;;;;;;;13.88;5.18;;;;;;;17.14;100.00;94545.16;5039156;28;20378;-91
2022/09/01 22:53:43;;;;;;;14.85;5.82;;;;;;;16.70;100.00;94553.59;5039944;28;20021;-91
2022/09/01 22:56:19;;;;;;;15.25;6.72;;;;;;;16.68;100.00;94561.06;5039124;28;20077;-92
2022/09/01 22:58:45;;;;;;;15.65;5.88;;;;;;;16.43;100.00;94562.44;5039449;28;20032;-93
2022/09/01 23:01:13;;;;;;;13.65;6.93;;;;;;;16.77;100.00;94558.47;5056819;28;20070;-92
2022/09/01 23:03:40;;;;;;;11.63;6.53;;;;;;;16.93;100.00;94558.88;5056671;28;20116;-92
2022/09/01 23:06:10;;;;;;;13.30;6.20;;;;;;;16.95;100.00;94559.38;5056634;28;20025;-93
2022/09/01 23:08:36;;;;;;;9.98;5.70;;;;;;;17.19;100.00;94553.75;5056743;28;20029;-92
2022/09/01 23:11:02;;;;;;;10.38;5.53;;;;;;;17.26;100.00;94561.25;5056720;28;20136;-92
2022/09/01 23:13:27;;;;;;;21.33;6.38;;;;;;;16.69;100.00;94559.97;5056581;28;20150;-91
2022/09/01 23:15:55;;;;;;;11.50;6.55;;;;;;;17.09;100.00;94557.44;5038892;28;20111;-91
2022/09/01 23:18:21;;;;;;;8.60;6.07;;;;;;;17.03;100.00;94556.00;5056753;28;20053;-92
2022/09/01 23:20:46;;;;;;;13.23;6.65;;;;;;;17.33;100.00;94552.88;5056606;28;20029;-91
2022/09/01 23:23:13;;;;;;;11.50;5.90;;;;;;;17.17;100.00;94561.22;5056814;28;20029;-92
2022/09/01 23:25:42;;;;;;;21.63;6.75;;;;;;;16.59;100.00;94563.66;5056446;28;20024;-91
2022/09/01 23:28:08;;;;;;;11.73;7.57;;;;;;;16.82;100.00;94559.13;5039077;28;20486;-91
2022/09/01 23:30:34;;;;;;;12.20;6.97;;;;;;;16.51;100.00;94559.88;5056470;28;20024;-92
2022/09/01 23:33:00;;;;;;;12.38;6.95;;;;;;;16.68;100.00;94553.13;5056837;28;20029;-93
2022/09/01 23:35:25;;;;;;;12.02;6.80;;;;;;;16.94;100.00;94555.16;5039150;28;20021;-93
2022/09/01 23:37:51;;;;;;;10.95;6.13;;;;;;;16.90;100.00;94556.81;5022670;28;20025;-92
2022/09/01 23:40:16;;;;;;;13.77;7.18;;;;;;;17.21;100.00;94564.03;5038690;28;20052;-92
2022/09/01 23:42:42;;;;;;;13.63;6.57;;;;;;;17.06;100.00;94555.38;5038634;28;20064;-92
2022/09/01 23:45:08;;;;;;;10.63;5.90;;;;;;;16.86;100.00;94554.03;5025742;28;20025;-92
2022/09/01 23:47:34;;;;;;;13.15;6.00;;;;;;;16.73;100.00;94560.16;5026317;28;20032;-92
2022/09/01 23:50:01;;;;;;;16.13;6.60;;;;;;;16.85;100.00;94563.03;5042667;28;20468;-92
2022/09/01 23:52:26;;;;;;;9.90;6.47;;;;;;;16.57;100.00;94560.53;5042782;28;20051;-92
2022/09/01 23:58:15;;;;;;;9.05;5.93;;;;;;;16.47;100.00;94547.53;5060284;28;20043;-92
